createdAt,value
2018-03-08T00:01:05.818Z,96134.91
2018-03-08T00:03:33.327Z,96131.36
2018-03-08T00:06:00.834Z,96142.41
2018-03-08T00:08:28.357Z,96143.97
2018-03-08T00:10:55.878Z,96143.45
2018-03-08T00:13:24.135Z,96144.50
2018-03-08T00:15:51.651Z,96152.13
2018-03-08T00:18:19.154Z,96152.40
2018-03-08T00:20:46.686Z,96141.28
2018-03-08T00:23:14.194Z,96155.16
2018-03-08T00:25:41.921Z,96150.78
2018-03-08T00:28:09.425Z,96148.48
2018-03-08T00:30:36.938Z,96148.94
2018-03-08T00:33:04.483Z,96154.48
2018-03-08T00:35:32.094Z,96161.17
2018-03-08T00:38:00.034Z,96168.70
2018-03-08T00:40:27.538Z,96166.80
2018-03-08T00:42:55.042Z,96171.41
2018-03-08T00:45:22.582Z,96177.33
2018-03-08T00:47:50.090Z,96176.50
2018-03-08T00:50:17.648Z,96172.92
2018-03-08T00:52:45.169Z,96175.37
2018-03-08T00:55:12.679Z,96170.88
2018-03-08T00:57:40.217Z,96176.75
2018-03-08T01:00:07.722Z,96175.77
2018-03-08T01:02:35.267Z,96173.54
2018-03-08T01:05:02.781Z,96169.58
2018-03-08T01:07:30.288Z,96175.34
2018-03-08T01:09:57.822Z,96170.95
2018-03-08T01:12:25.325Z,96163.89
2018-03-08T01:14:52.865Z,96170.20
2018-03-08T01:17:20.370Z,96167.63
2018-03-08T01:19:47.926Z,96172.53
2018-03-08T01:22:15.462Z,96177.01
2018-03-08T01:24:43.051Z,96182.57
2018-03-08T01:27:10.702Z,96183.53
2018-03-08T01:29:38.210Z,96175.70
2018-03-08T01:32:05.718Z,96182.27
2018-03-08T01:34:34.178Z,96182.91
2018-03-08T01:37:01.682Z,96179.65
2018-03-08T01:39:29.622Z,96187.37
2018-03-08T01:41:57.145Z,96182.19
2018-03-08T01:44:24.654Z,96183.13
2018-03-08T01:46:52.194Z,96179.25
2018-03-08T01:49:19.703Z,96180.05
2018-03-08T01:51:59.198Z,96184.91
2018-03-08T01:54:26.703Z,96177.98
2018-03-08T01:56:54.205Z,96177.20
2018-03-08T01:59:21.762Z,96178.20
2018-03-08T02:01:49.268Z,96168.48
2018-03-08T02:04:16.814Z,96175.91
2018-03-08T02:06:44.323Z,96178.12
2018-03-08T02:09:11.834Z,96184.36
2018-03-08T02:11:39.388Z,96190.37
2018-03-08T02:14:06.890Z,96194.52
2018-03-08T02:16:35.227Z,96190.64
2018-03-08T02:19:02.730Z,96191.38
2018-03-08T02:21:30.230Z,96196.76
2018-03-08T02:23:58.022Z,96195.05
2018-03-08T02:26:25.542Z,96203.97
2018-03-08T02:28:53.418Z,96206.50
2018-03-08T02:31:20.926Z,96207.31
2018-03-08T02:33:48.439Z,96215.41
2018-03-08T02:36:15.974Z,96211.42
2018-03-08T02:38:43.484Z,96210.42
2018-03-08T02:41:11.027Z,96210.02
2018-03-08T02:43:38.546Z,96215.69
2018-03-08T02:46:06.054Z,96215.14
2018-03-08T02:48:33.653Z,96206.55
2018-03-08T02:51:01.162Z,96227.53
2018-03-08T02:53:28.707Z,96225.01
2018-03-08T02:55:56.226Z,96226.03
2018-03-08T02:58:23.743Z,96225.20
2018-03-08T03:00:51.278Z,96230.44
2018-03-08T03:03:18.798Z,96232.41
2018-03-08T03:05:46.589Z,96225.24
2018-03-08T03:08:14.097Z,96230.45
2018-03-08T03:10:42.582Z,96223.34
2018-03-08T03:13:11.032Z,96227.73
2018-03-08T03:15:38.674Z,96231.28
2018-03-08T03:18:06.426Z,96236.60
2018-03-08T03:20:33.929Z,96243.52
2018-03-08T03:23:01.443Z,96245.31
2018-03-08T03:25:28.993Z,96246.30
2018-03-08T03:27:56.713Z,96243.72
2018-03-08T03:30:24.642Z,96240.65
2018-03-08T03:32:52.154Z,96246.81
2018-03-08T03:35:19.658Z,96245.59
2018-03-08T03:37:47.281Z,96249.08
2018-03-08T03:40:14.786Z,96250.03
2018-03-08T03:42:42.588Z,96252.78
2018-03-08T03:45:10.101Z,96252.77
2018-03-08T03:47:37.604Z,96253.23
2018-03-08T03:50:05.136Z,96255.98
2018-03-08T03:52:32.664Z,96256.04
2018-03-08T03:55:00.541Z,96252.18
2018-03-08T03:57:28.045Z,96258.45
2018-03-08T03:59:55.580Z,96254.77
2018-03-08T04:02:23.111Z,96262.50
2018-03-08T04:04:51.621Z,96259.56
2018-03-08T04:07:19.611Z,96257.72
2018-03-08T04:09:47.111Z,96254.42
2018-03-08T04:12:15.663Z,96261.20
2018-03-08T04:14:43.181Z,96260.87
2018-03-08T04:17:10.783Z,96264.67
2018-03-08T04:19:38.490Z,96266.63
2018-03-08T04:22:06.004Z,96270.55
2018-03-08T04:24:33.573Z,96268.70
2018-03-08T04:27:01.114Z,96263.30
2018-03-08T04:29:28.978Z,96262.70
2018-03-08T04:31:57.743Z,96260.36
2018-03-08T04:34:25.292Z,96258.06
2018-03-08T04:36:52.852Z,96254.98
2018-03-08T04:39:20.377Z,96255.70
2018-03-08T04:41:47.901Z,96260.19
2018-03-08T04:44:15.598Z,96260.39
2018-03-08T04:46:43.111Z,96265.06
2018-03-08T04:49:10.619Z,96262.95
2018-03-08T04:51:38.149Z,96270.62
2018-03-08T04:54:05.671Z,96262.39
2018-03-08T04:56:33.615Z,96266.05
2018-03-08T04:59:01.134Z,96264.96
2018-03-08T05:01:28.642Z,96271.95
2018-03-08T05:03:56.195Z,96273.05
2018-03-08T05:06:23.708Z,96270.59
2018-03-08T05:08:51.414Z,96272.27
2018-03-08T05:11:18.920Z,96276.42
2018-03-08T05:13:46.458Z,96274.46
2018-03-08T05:16:14.016Z,96273.41
2018-03-08T05:18:41.522Z,96270.82
2018-03-08T05:21:09.206Z,96269.23
2018-03-08T05:23:36.722Z,96266.87
2018-03-08T05:26:04.249Z,96272.15
2018-03-08T05:28:32.630Z,96272.23
2018-03-08T05:31:00.131Z,96284.97
2018-03-08T05:33:27.991Z,96283.98
2018-03-08T05:35:55.494Z,96278.39
2018-03-08T05:40:49.839Z,96279.04
2018-03-08T05:43:17.350Z,96280.96
2018-03-08T05:45:44.923Z,96288.91
2018-03-08T05:48:12.430Z,96288.52
2018-03-08T05:50:39.947Z,96302.16
2018-03-08T05:53:07.481Z,96297.04
2018-03-08T05:55:35.883Z,96295.81
2018-03-08T05:58:03.443Z,96303.34
2018-03-08T06:00:30.956Z,96294.05
2018-03-08T06:02:58.497Z,96297.44
2018-03-08T06:05:26.038Z,96296.75
2018-03-08T06:07:53.552Z,96289.31
2018-03-08T06:10:21.096Z,96292.55
2018-03-08T06:12:49.603Z,96297.59
2018-03-08T06:15:17.107Z,96301.93
2018-03-08T06:17:44.635Z,96301.50
2018-03-08T06:20:12.239Z,96303.05
2018-03-08T06:22:40.045Z,96307.17
2018-03-08T06:25:07.706Z,96311.17
2018-03-08T06:27:35.382Z,96314.77
2018-03-08T06:30:02.950Z,96319.05
2018-03-08T06:32:30.462Z,96319.58
2018-03-08T06:34:58.109Z,96323.19
2018-03-08T06:37:25.700Z,96326.89
2018-03-08T06:39:53.255Z,96333.64
2018-03-08T06:42:21.810Z,96329.47
2018-03-08T06:44:49.367Z,96324.02
2018-03-08T06:47:17.324Z,96318.48
2018-03-08T06:49:44.855Z,96321.34
2018-03-08T06:52:12.368Z,96319.00
2018-03-08T06:54:39.971Z,96328.49
2018-03-08T06:57:08.061Z,96330.52
2018-03-08T06:59:35.626Z,96319.97
2018-03-08T07:02:03.160Z,96325.09
2018-03-08T07:04:30.704Z,96325.20
2018-03-08T07:06:58.266Z,96328.84
2018-03-08T07:09:25.778Z,96326.85
2018-03-08T07:11:53.578Z,96323.73
2018-03-08T07:14:21.119Z,96326.97
2018-03-08T07:16:48.756Z,96336.44
2018-03-08T07:19:16.391Z,96332.35
2018-03-08T07:21:43.915Z,96335.48
2018-03-08T07:24:11.700Z,96340.91
2018-03-08T07:26:39.221Z,96343.37
2018-03-08T07:29:06.754Z,96339.69
2018-03-08T07:31:34.288Z,96341.28
2018-03-08T07:34:01.805Z,96340.08
2018-03-08T07:36:29.690Z,96349.44
2018-03-08T07:38:57.243Z,96344.36
2018-03-08T07:41:24.769Z,96349.95
2018-03-08T07:43:52.311Z,96348.41
2018-03-08T07:46:19.830Z,96361.80
2018-03-08T07:48:47.419Z,96354.47
2018-03-08T07:51:15.093Z,96342.44
2018-03-08T07:53:42.618Z,96344.60
2018-03-08T07:56:10.212Z,96344.38
2018-03-08T07:58:37.749Z,96342.16
2018-03-08T08:01:05.392Z,96346.67
2018-03-08T08:03:34.193Z,96349.46
2018-03-08T08:06:14.164Z,96343.86
2018-03-08T08:08:53.518Z,96354.40
2018-03-08T08:11:21.091Z,96343.05
2018-03-08T08:13:48.734Z,96348.40
2018-03-08T08:16:16.265Z,96356.77
2018-03-08T08:18:43.934Z,96353.70
2018-03-08T08:21:11.545Z,96342.08
2018-03-08T08:23:40.029Z,96347.98
2018-03-08T08:26:07.575Z,96346.02
2018-03-08T08:28:35.102Z,96342.70
2018-03-08T08:31:02.654Z,96343.66
2018-03-08T08:33:30.242Z,96341.22
2018-03-08T08:35:58.066Z,96342.24
2018-03-08T08:38:25.578Z,96339.83
2018-03-08T08:40:53.110Z,96339.93
2018-03-08T08:43:20.649Z,96340.29
2018-03-08T08:45:48.285Z,96334.75
2018-03-08T08:48:15.921Z,96336.50
2018-03-08T08:50:43.438Z,96341.97
2018-03-08T08:53:11.035Z,96333.09
2018-03-08T08:55:38.726Z,96337.66
2018-03-08T08:58:06.318Z,96344.44
2018-03-08T09:00:33.947Z,96337.89
2018-03-08T09:03:01.458Z,96345.85
2018-03-08T09:05:28.988Z,96345.70
2018-03-08T09:07:56.535Z,96349.58
2018-03-08T09:10:24.167Z,96350.18
2018-03-08T09:12:51.938Z,96359.00
2018-03-08T09:15:19.623Z,96352.22
2018-03-08T09:17:47.205Z,96366.30
2018-03-08T09:20:14.858Z,96362.44
2018-03-08T09:22:42.608Z,96358.15
2018-03-08T09:25:10.513Z,96362.25
2018-03-08T09:27:38.174Z,96359.32
2018-03-08T09:30:05.805Z,96357.49
2018-03-08T09:32:33.597Z,96359.56
2018-03-08T09:35:01.254Z,96353.42
2018-03-08T09:37:28.813Z,96352.95
2018-03-08T09:39:56.322Z,96357.36
2018-03-08T09:42:23.845Z,96347.59
2018-03-08T09:44:51.403Z,96355.14
2018-03-08T09:47:18.915Z,96357.65
2018-03-08T09:49:46.986Z,96349.27
2018-03-08T09:52:14.535Z,96356.40
2018-03-08T09:54:42.304Z,96365.30
2018-03-08T09:57:10.053Z,96352.71
2018-03-08T09:59:37.571Z,96350.90
2018-03-08T10:02:05.397Z,96340.29
2018-03-08T10:04:32.958Z,96346.55
2018-03-08T10:07:00.469Z,96338.05
2018-03-08T10:09:28.190Z,96342.48
2018-03-08T10:11:55.868Z,96334.75
2018-03-08T10:14:23.575Z,96337.69
2018-03-08T10:16:51.094Z,96330.52
2018-03-08T10:19:18.620Z,96328.09
2018-03-08T10:21:46.295Z,96321.34
2018-03-08T10:24:13.817Z,96309.89
2018-03-08T10:26:41.479Z,96316.33
2018-03-08T10:29:08.990Z,96311.42
2018-03-08T10:31:36.622Z,96335.55
2018-03-08T10:34:04.217Z,96311.23
2018-03-08T10:36:31.730Z,96315.52
2018-03-08T10:38:59.313Z,96306.17
2018-03-08T10:43:54.489Z,96315.73
2018-03-08T10:46:22.062Z,96325.34
2018-03-08T10:51:17.521Z,96318.63
2018-03-08T10:53:45.062Z,96297.32
2018-03-08T10:56:12.591Z,96299.36
2018-03-08T10:58:40.148Z,96306.19
2018-03-08T11:01:07.692Z,96299.97
2018-03-08T11:03:42.277Z,96293.70
2018-03-08T11:06:14.273Z,96290.57
2018-03-08T11:08:41.850Z,96283.51
2018-03-08T11:11:09.553Z,96285.58
2018-03-08T11:13:37.621Z,96285.67
2018-03-08T11:16:05.276Z,96280.87
2018-03-08T11:18:32.790Z,96278.45
2018-03-08T11:21:00.360Z,96270.13
2018-03-08T11:23:27.881Z,96269.34
2018-03-08T11:25:55.828Z,96270.69
2018-03-08T11:28:23.409Z,96275.30
2018-03-08T11:30:50.925Z,96262.43
2018-03-08T11:33:18.468Z,96260.05
2018-03-08T11:35:45.974Z,96265.41
2018-03-08T11:38:14.040Z,96258.70
2018-03-08T11:40:41.247Z,96253.07
2018-03-08T11:43:08.886Z,96247.21
2018-03-08T11:45:36.598Z,96242.98
2018-03-08T11:48:04.113Z,96246.78
2018-03-08T11:50:31.963Z,96243.42
2018-03-08T11:52:59.737Z,96237.59
2018-03-08T11:55:27.839Z,96257.09
2018-03-08T11:57:55.377Z,96240.97
2018-03-08T12:00:22.926Z,96246.43
2018-03-08T12:02:50.959Z,96229.27
2018-03-08T12:05:18.621Z,96232.94
2018-03-08T12:07:46.179Z,96223.86
2018-03-08T12:10:14.872Z,96222.83
2018-03-08T12:12:42.731Z,96231.45
2018-03-08T12:15:10.460Z,96212.47
2018-03-08T12:17:37.986Z,96214.02
2018-03-08T12:20:05.975Z,96209.50
2018-03-08T12:22:33.791Z,96209.02
2018-03-08T12:25:01.654Z,96197.80
2018-03-08T12:27:29.726Z,96197.30
2018-03-08T12:29:57.489Z,96189.39
2018-03-08T12:32:25.218Z,96186.56
2018-03-08T12:35:11.960Z,96183.89
2018-03-08T12:37:39.994Z,96176.08
2018-03-08T12:40:08.710Z,96179.42
2018-03-08T12:42:36.419Z,96166.48
2018-03-08T12:45:04.348Z,96164.11
2018-03-08T12:47:32.034Z,96147.72
2018-03-08T12:49:59.877Z,96146.00
2018-03-08T12:52:27.744Z,96147.31
2018-03-08T12:54:55.611Z,96147.47
2018-03-08T12:57:23.479Z,96147.41
2018-03-08T12:59:51.753Z,96154.23
2018-03-08T13:02:19.620Z,96146.33
2018-03-08T13:04:47.895Z,96144.97
2018-03-08T13:07:15.934Z,96148.87
2018-03-08T13:09:43.628Z,96136.06
2018-03-08T13:12:11.906Z,96133.04
2018-03-08T13:14:39.776Z,96137.28
2018-03-08T13:17:09.280Z,96135.63
2018-03-08T13:19:37.146Z,96125.83
2018-03-08T13:22:04.804Z,96132.27
2018-03-08T13:24:32.670Z,96126.39
2018-03-08T13:27:00.435Z,96123.03
2018-03-08T13:29:28.918Z,96120.69
2018-03-08T13:31:56.782Z,96126.39
2018-03-08T13:34:24.648Z,96121.63
2018-03-08T13:36:53.233Z,96113.86
2018-03-08T13:39:21.099Z,96117.67
2018-03-08T13:41:48.850Z,96112.98
2018-03-08T13:44:16.658Z,96115.27
2018-03-08T13:46:44.288Z,96109.09
2018-03-08T13:49:23.828Z,96111.05
2018-03-08T13:51:51.489Z,96102.85
2018-03-08T13:54:19.255Z,96095.22
2018-03-08T13:56:47.122Z,96101.66
2018-03-08T13:59:15.329Z,96099.55
2018-03-08T14:01:43.161Z,96085.11
2018-03-08T14:04:10.821Z,96080.04
2018-03-08T14:06:38.461Z,96081.52
2018-03-08T14:09:06.249Z,96082.03
2018-03-08T14:11:34.115Z,96079.60
2018-03-08T14:14:01.982Z,96069.77
2018-03-08T14:16:29.642Z,96077.64
2018-03-08T14:18:57.407Z,96063.22
2018-03-08T14:21:25.171Z,96061.73
2018-03-08T14:23:53.141Z,96057.77
2018-03-08T14:26:20.907Z,96059.98
2018-03-08T14:28:48.475Z,96060.54
2018-03-08T14:31:16.331Z,96056.48
2018-03-08T14:33:44.000Z,96054.59
2018-03-08T14:36:12.165Z,96049.16
2018-03-08T14:38:39.826Z,96046.61
2018-03-08T14:41:07.598Z,96038.92
2018-03-08T14:43:35.460Z,96037.98
2018-03-08T14:46:03.325Z,96031.59
2018-03-08T14:48:31.294Z,96028.66
2018-03-08T14:51:00.593Z,96022.20
2018-03-08T14:53:28.358Z,96024.75
2018-03-08T14:55:56.297Z,96030.72
2018-03-08T14:58:23.826Z,96027.25
2018-03-08T15:00:51.651Z,96032.23
2018-03-08T15:03:19.239Z,96025.63
2018-03-08T15:05:46.881Z,96018.96
2018-03-08T15:08:14.738Z,96017.56
2018-03-08T15:10:42.399Z,96025.58
2018-03-08T15:13:10.581Z,96028.44
2018-03-08T15:15:38.543Z,96023.42
2018-03-08T15:18:06.410Z,96018.36
2018-03-08T15:20:34.377Z,96017.27
2018-03-08T15:23:02.256Z,96014.45
2018-03-08T15:25:30.828Z,96012.69
2018-03-08T15:27:58.798Z,96013.41
2018-03-08T15:30:27.484Z,96012.47
2018-03-08T15:32:55.426Z,96016.97
2018-03-08T15:35:23.114Z,96016.27
2018-03-08T15:37:51.286Z,96009.52
2018-03-08T15:40:19.663Z,96012.33
2018-03-08T15:42:48.677Z,96019.30
2018-03-08T15:45:16.626Z,96014.84
2018-03-08T15:47:44.550Z,96016.70
2018-03-08T15:50:12.564Z,96021.87
2018-03-08T15:52:40.431Z,96019.48
2018-03-08T15:55:08.606Z,96017.27
2018-03-08T15:57:36.679Z,96016.73
2018-03-08T16:00:04.610Z,96014.59
2018-03-08T16:02:33.101Z,96018.23
2018-03-08T16:05:03.593Z,96031.77
2018-03-08T16:10:48.875Z,96036.61
2018-03-08T16:13:17.226Z,96030.57
2018-03-08T16:15:45.626Z,96033.50
2018-03-08T16:18:14.300Z,96032.49
2018-03-08T16:20:46.134Z,96038.62
2018-03-08T16:23:15.044Z,96021.70
2018-03-08T16:25:43.213Z,96018.47
2018-03-08T16:28:11.082Z,96030.23
2018-03-08T16:30:39.053Z,96029.07
2018-03-08T16:33:06.918Z,96028.50
2018-03-08T16:35:34.783Z,96037.58
2018-03-08T16:38:02.752Z,96030.07
2018-03-08T16:40:31.094Z,96026.33
2018-03-08T16:42:59.100Z,96026.27
2018-03-08T16:45:26.966Z,96018.98
2018-03-08T16:47:55.242Z,96018.66
2018-03-08T16:50:23.069Z,96023.24
2018-03-08T16:52:50.974Z,96019.06
2018-03-08T16:55:19.046Z,96017.06
2018-03-08T16:57:47.126Z,96021.67
2018-03-08T17:00:15.523Z,96020.95
2018-03-08T17:02:43.466Z,96019.98
2018-03-08T17:05:11.343Z,96023.91
2018-03-08T17:07:39.775Z,96024.09
2018-03-08T17:10:08.402Z,96018.27
2018-03-08T17:12:36.435Z,96022.75
2018-03-08T17:15:04.947Z,96017.29
2018-03-08T17:17:33.839Z,96012.58
2018-03-08T17:20:02.149Z,96023.16
2018-03-08T17:22:30.294Z,96017.94
2018-03-08T17:24:58.202Z,96016.30
2018-03-08T17:27:27.044Z,96015.67
2018-03-08T17:29:56.037Z,96030.72
2018-03-08T17:32:24.928Z,96029.48
2018-03-08T17:34:52.795Z,96038.13
2018-03-08T17:37:20.662Z,96032.94
2018-03-08T17:39:48.527Z,96036.40
2018-03-08T17:42:16.394Z,96046.59
2018-03-08T17:44:44.627Z,96047.98
2018-03-08T17:47:12.655Z,96053.44
2018-03-08T17:49:40.506Z,96053.20
2018-03-08T17:52:08.475Z,96062.45
2018-03-08T17:54:37.796Z,96062.39
2018-03-08T17:57:05.958Z,96064.70
2018-03-08T17:59:33.918Z,96069.31
2018-03-08T18:02:02.704Z,96073.97
2018-03-08T18:04:30.878Z,96081.73
2018-03-08T18:06:59.059Z,96089.31
2018-03-08T18:09:27.738Z,96099.02
2018-03-08T18:11:55.604Z,96090.62
2018-03-08T18:14:23.472Z,96092.30
2018-03-08T18:16:51.445Z,96090.78
2018-03-08T18:19:20.229Z,96095.72
2018-03-08T18:21:48.813Z,96098.55
2018-03-08T18:24:16.679Z,96100.81
2018-03-08T18:26:44.910Z,96095.44
2018-03-08T18:29:12.822Z,96104.39
2018-03-08T18:31:41.915Z,96109.36
2018-03-08T18:34:10.261Z,96112.39
2018-03-08T18:36:41.846Z,96118.58
2018-03-08T18:39:09.771Z,96122.30
2018-03-08T18:41:38.810Z,96123.08
2018-03-08T18:44:06.778Z,96121.14
2018-03-08T18:46:35.156Z,96126.03
2018-03-08T18:49:04.563Z,96128.36
2018-03-08T18:51:32.604Z,96128.34
2018-03-08T18:54:00.496Z,96128.66
2018-03-08T18:56:28.258Z,96134.00
2018-03-08T18:58:56.333Z,96136.02
2018-03-08T19:01:24.144Z,96146.17
2018-03-08T19:03:52.064Z,96145.59
2018-03-08T19:06:19.714Z,96145.00
2018-03-08T19:08:47.592Z,96148.47
2018-03-08T19:11:15.563Z,96155.45
2018-03-08T19:13:43.501Z,96149.99
2018-03-08T19:16:12.321Z,96146.83
2018-03-08T19:18:40.297Z,96145.82
2018-03-08T19:21:08.150Z,96146.77
2018-03-08T19:23:35.967Z,96143.89
2018-03-08T19:26:03.990Z,96140.85
2018-03-08T19:28:32.065Z,96143.10
2018-03-08T19:31:00.135Z,96144.05
2018-03-08T19:33:28.425Z,96147.31
2018-03-08T19:35:56.379Z,96142.52
2018-03-08T19:38:24.392Z,96154.16
2018-03-08T19:40:52.584Z,96161.08
2018-03-08T19:43:20.601Z,96167.13
2018-03-08T19:45:48.459Z,96166.33
2018-03-08T19:48:16.529Z,96166.91
2018-03-08T19:50:44.780Z,96168.81
2018-03-08T19:53:12.698Z,96169.27
2018-03-08T19:55:41.665Z,96171.22
2018-03-08T19:58:10.457Z,96171.23
2018-03-08T20:00:38.423Z,96171.02
2018-03-08T20:03:06.290Z,96177.90
2018-03-08T20:05:34.672Z,96177.50
2018-03-08T20:08:04.377Z,96181.16
2018-03-08T20:10:32.246Z,96186.52
2018-03-08T20:13:00.178Z,96178.88
2018-03-08T20:15:28.082Z,96188.58
2018-03-08T20:17:56.361Z,96194.30
2018-03-08T20:20:24.221Z,96195.09
2018-03-08T20:22:52.291Z,96202.52
2018-03-08T20:25:20.261Z,96202.10
2018-03-08T20:27:52.403Z,96204.72
2018-03-08T20:30:21.351Z,96202.86
2018-03-08T20:32:49.288Z,96204.28
2018-03-08T20:35:17.185Z,96205.83
2018-03-08T20:37:45.135Z,96204.47
2018-03-08T20:40:12.991Z,96212.37
2018-03-08T20:42:41.266Z,96214.77
2018-03-08T20:45:09.620Z,96218.86
2018-03-08T20:47:37.511Z,96219.87
2018-03-08T20:50:05.994Z,96219.45
2018-03-08T20:52:34.126Z,96218.02
2018-03-08T20:55:02.412Z,96223.34
2018-03-08T20:57:30.280Z,96219.05
2018-03-08T20:59:59.142Z,96229.63
2018-03-08T21:02:27.486Z,96228.82
2018-03-08T21:04:55.499Z,96228.15
2018-03-08T21:07:24.175Z,96224.48
2018-03-08T21:09:54.148Z,96230.44
2018-03-08T21:12:22.937Z,96222.52
2018-03-08T21:14:50.801Z,96232.95
2018-03-08T21:17:19.589Z,96237.55
2018-03-08T21:19:48.377Z,96238.66
2018-03-08T21:22:16.159Z,96239.77
2018-03-08T21:24:44.520Z,96237.03
2018-03-08T21:27:12.796Z,96239.45
2018-03-08T21:29:40.782Z,96245.98
2018-03-08T21:32:09.144Z,96250.49
2018-03-08T21:34:37.011Z,96254.56
2018-03-08T21:37:05.269Z,96254.52
2018-03-08T21:39:33.153Z,96264.70
2018-03-08T21:42:01.430Z,96268.55
2018-03-08T21:44:29.501Z,96281.04
2018-03-08T21:46:57.366Z,96279.83
2018-03-08T21:49:25.355Z,96274.03
2018-03-08T21:51:53.316Z,96282.58
2018-03-08T21:54:21.274Z,96288.38
2018-03-08T21:56:49.346Z,96293.33
2018-03-08T21:59:17.213Z,96303.79
2018-03-08T22:01:45.076Z,96309.70
2018-03-08T22:04:13.076Z,96319.63
2018-03-08T22:06:40.870Z,96353.84
2018-03-08T22:09:08.937Z,96364.27
2018-03-08T22:11:36.748Z,96375.67
2018-03-08T22:14:05.023Z,96375.41
2018-03-08T22:16:32.993Z,96381.82
2018-03-08T22:19:00.805Z,96385.67
2018-03-08T22:21:28.828Z,96385.27
2018-03-08T22:23:56.471Z,96387.50
2018-03-08T22:26:24.655Z,96384.38
2018-03-08T22:28:52.530Z,96383.70
2018-03-08T22:31:20.396Z,96392.29
2018-03-08T22:33:48.571Z,96400.95
2018-03-08T22:36:16.762Z,96415.06
2018-03-08T22:38:44.713Z,96426.58
2018-03-08T22:41:12.580Z,96435.72
2018-03-08T22:43:40.241Z,96443.84
2018-03-08T22:46:08.210Z,96438.98
2018-03-08T22:48:36.180Z,96438.28
2018-03-08T22:51:03.841Z,96440.05
2018-03-08T22:53:32.170Z,96444.24
2018-03-08T22:56:00.354Z,96438.98
2018-03-08T22:58:28.242Z,96453.83
2018-03-08T23:00:55.741Z,96464.36
2018-03-08T23:03:29.398Z,96458.34
2018-03-08T23:05:56.928Z,96465.72
2018-03-08T23:08:24.446Z,96465.81
2018-03-08T23:13:24.874Z,96461.14
2018-03-08T23:15:52.415Z,96462.44
2018-03-08T23:18:20.176Z,96467.95
2018-03-08T23:20:47.763Z,96476.17
2018-03-08T23:23:15.294Z,96476.91
2018-03-08T23:25:42.799Z,96485.95
2018-03-08T23:28:10.513Z,96496.36
2018-03-08T23:30:38.886Z,96501.63
2018-03-08T23:33:06.390Z,96510.47
2018-03-08T23:35:33.936Z,96505.58
2018-03-08T23:38:01.498Z,96511.84
2018-03-08T23:40:29.270Z,96510.04
2018-03-08T23:42:56.766Z,96498.61
2018-03-08T23:45:24.284Z,96492.07
2018-03-08T23:47:51.817Z,96497.17
2018-03-08T23:50:19.321Z,96501.11
2018-03-08T23:52:47.609Z,96494.30
2018-03-08T23:55:16.425Z,96502.48
2018-03-08T23:57:43.929Z,96513.28
